createdAt,value
2022-08-07T00:01:44.754Z,97742.28
2022-08-07T00:04:27.951Z,97740.22
2022-08-07T00:07:40.928Z,97742.75
2022-08-07T00:10:48.367Z,97738.25
2022-08-07T00:14:01.864Z,97734.97
2022-08-07T00:17:07.213Z,97747.72
2022-08-07T00:20:15.605Z,97748.16
2022-08-07T00:23:34.874Z,97742.44
2022-08-07T00:26:59.000Z,97745.31
2022-08-07T00:30:03.243Z,97751.13
2022-08-07T00:33:09.077Z,97748.66
2022-08-07T00:36:13.742Z,97757.19
2022-08-07T00:39:21.076Z,97766.25
2022-08-07T00:42:29.279Z,97757.03
2022-08-07T00:45:34.043Z,97759.53
2022-08-07T00:48:42.015Z,97758.59
2022-08-07T00:51:56.802Z,97760.19
2022-08-07T00:55:04.776Z,97766.06
2022-08-07T00:58:15.263Z,97772.69
2022-08-07T01:01:20.434Z,97771.06
2022-08-07T01:04:26.352Z,97774.91
2022-08-07T01:07:43.500Z,97770.91
2022-08-07T01:10:56.547Z,97776.44
2022-08-07T01:14:15.454Z,97776.63
2022-08-07T01:17:33.687Z,97777.72
2022-08-07T01:21:01.363Z,97777.41
2022-08-07T01:24:21.229Z,97774.09
2022-08-07T01:27:32.287Z,97780.22
2022-08-07T01:30:56.015Z,97778.75
2022-08-07T01:34:04.203Z,97782.44
2022-08-07T01:37:40.694Z,97783.50
2022-08-07T01:40:59.576Z,97790.69
2022-08-07T01:44:14.365Z,97791.47
2022-08-07T01:48:21.404Z,97785.53
2022-08-07T01:54:37.779Z,97803.38
2022-08-07T01:58:28.922Z,97807.03
2022-08-07T02:02:02.386Z,97808.56
2022-08-07T02:05:43.486Z,97823.69
2022-08-07T02:08:44.741Z,97822.66
2022-08-07T02:12:04.677Z,97817.09
2022-08-07T02:15:18.059Z,97820.53
2022-08-07T02:18:33.361Z,97827.13
2022-08-07T02:21:56.528Z,97832.53
2022-08-07T02:25:07.437Z,97832.69
2022-08-07T02:28:24.410Z,97833.81
2022-08-07T02:31:39.270Z,97823.22
2022-08-07T02:34:55.716Z,97833.47
2022-08-07T02:38:07.608Z,97838.38
2022-08-07T02:41:33.434Z,97836.66
2022-08-07T02:44:58.414Z,97840.97
2022-08-07T02:48:17.596Z,97850.03
2022-08-07T02:51:49.768Z,97855.19
2022-08-07T02:55:27.251Z,97861.22
2022-08-07T02:58:39.828Z,97860.56
2022-08-07T03:02:02.220Z,97872.66
2022-08-07T03:05:25.557Z,97866.75
2022-08-07T03:08:39.874Z,97877.25
2022-08-07T03:11:52.287Z,97877.84
2022-08-07T03:15:30.198Z,97881.38
2022-08-07T03:18:48.091Z,97888.81
2022-08-07T03:22:04.632Z,97884.16
2022-08-07T03:25:40.331Z,97889.97
2022-08-07T03:29:00.228Z,97884.13
2022-08-07T03:32:29.584Z,97889.06
2022-08-07T03:36:04.639Z,97893.13
2022-08-07T03:40:00.141Z,97900.91
2022-08-07T03:43:14.440Z,97897.63
2022-08-07T03:50:05.790Z,97895.22
2022-08-07T03:54:00.547Z,97901.22
2022-08-07T03:57:09.081Z,97901.34
2022-08-07T04:00:30.263Z,97909.75
2022-08-07T04:03:38.817Z,97912.16
2022-08-07T04:06:56.050Z,97915.63
2022-08-07T04:10:15.377Z,97915.28
2022-08-07T04:13:27.768Z,97915.50
2022-08-07T04:16:33.595Z,97932.09
2022-08-07T04:19:52.667Z,97937.81
2022-08-07T04:23:02.090Z,97959.72
2022-08-07T04:26:16.900Z,97951.75
2022-08-07T04:29:40.259Z,97960.50
2022-08-07T04:32:47.989Z,97948.94
2022-08-07T04:35:55.655Z,97957.03
2022-08-07T04:39:08.677Z,97965.53
2022-08-07T04:42:15.516Z,97970.28
2022-08-07T04:45:44.534Z,97976.38
2022-08-07T04:49:18.043Z,97982.97
2022-08-07T04:52:46.688Z,97993.47
2022-08-07T04:58:13.817Z,97996.50
2022-08-07T05:00:12.442Z,97991.91
2022-08-07T05:03:31.089Z,97991.31
2022-08-07T05:06:43.338Z,97998.44
2022-08-07T05:09:59.150Z,98005.94
2022-08-07T05:14:55.702Z,98007.94
2022-08-07T05:16:44.140Z,98012.75
2022-08-07T05:19:54.295Z,98011.56
2022-08-07T05:23:03.606Z,98013.50
2022-08-07T05:26:18.680Z,98017.25
2022-08-07T05:29:48.076Z,98012.41
2022-08-07T05:32:58.268Z,98020.13
2022-08-07T05:36:12.255Z,98025.03
2022-08-07T05:40:05.631Z,98037.09
2022-08-07T05:42:55.916Z,98046.56
2022-08-07T05:46:02.632Z,98043.16
2022-08-07T05:49:12.563Z,98047.16
2022-08-07T05:52:29.832Z,98056.31
2022-08-07T05:56:02.439Z,98049.50
2022-08-07T05:59:03.982Z,98053.66
2022-08-07T06:02:21.491Z,98053.31
2022-08-07T06:05:36.587Z,98054.38
2022-08-07T06:08:49.188Z,98061.88
2022-08-07T06:11:56.548Z,98058.88
2022-08-07T06:15:05.411Z,98070.91
2022-08-07T06:18:10.794Z,98075.84
2022-08-07T06:22:15.159Z,98081.50
2022-08-07T06:24:53.061Z,98084.34
2022-08-07T06:28:06.526Z,98076.44
2022-08-07T06:31:11.963Z,98082.75
2022-08-07T06:34:16.277Z,98085.56
2022-08-07T06:37:24.991Z,98089.03
2022-08-07T06:40:54.679Z,98089.53
2022-08-07T06:44:25.019Z,98088.16
2022-08-07T06:47:48.184Z,98087.94
2022-08-07T06:51:09.467Z,98093.06
2022-08-07T06:55:32.302Z,98089.00
2022-08-07T06:57:47.771Z,98082.56
2022-08-07T07:01:05.895Z,98083.06
2022-08-07T07:04:32.639Z,98076.31
2022-08-07T07:07:59.734Z,98074.38
2022-08-07T07:11:13.808Z,98077.00
2022-08-07T07:14:32.471Z,98082.81
2022-08-07T07:17:45.397Z,98085.41
2022-08-07T07:20:56.978Z,98083.88
2022-08-07T07:24:08.691Z,98095.16
2022-08-07T07:27:22.044Z,98100.47
2022-08-07T07:30:37.730Z,98094.78
2022-08-07T07:33:44.579Z,98102.81
2022-08-07T07:37:14.992Z,98100.78
2022-08-07T07:40:26.754Z,98101.16
2022-08-07T07:43:48.146Z,98097.88
2022-08-07T07:47:15.970Z,98090.78
2022-08-07T07:50:59.833Z,98102.19
2022-08-07T07:54:22.652Z,98097.00
2022-08-07T07:57:51.501Z,98098.13
2022-08-07T08:00:57.343Z,98097.16
2022-08-07T08:04:11.619Z,98100.41
2022-08-07T08:07:20.175Z,98095.50
2022-08-07T08:10:35.589Z,98105.25
2022-08-07T08:13:54.614Z,98113.00
2022-08-07T08:17:56.563Z,98107.53
2022-08-07T08:20:32.226Z,98102.97
2022-08-07T08:23:56.162Z,98103.31
2022-08-07T08:27:10.351Z,98107.13
2022-08-07T08:30:17.480Z,98099.53
2022-08-07T08:33:33.384Z,98101.28
2022-08-07T08:36:46.178Z,98111.28
2022-08-07T08:39:58.232Z,98110.44
2022-08-07T08:43:10.581Z,98106.69
2022-08-07T08:46:23.064Z,98104.41
2022-08-07T08:49:46.400Z,98108.47
2022-08-07T08:52:59.008Z,98105.91
2022-08-07T08:56:07.327Z,98107.34
2022-08-07T08:59:26.773Z,98109.84
2022-08-07T09:02:40.335Z,98111.00
2022-08-07T09:05:56.875Z,98102.63
2022-08-07T09:09:20.810Z,98101.66
2022-08-07T09:12:53.178Z,98100.13
2022-08-07T09:16:24.119Z,98100.69
2022-08-07T09:19:53.744Z,98097.22
2022-08-07T09:24:32.611Z,98097.47
2022-08-07T09:26:51.108Z,98082.22
2022-08-07T09:30:05.534Z,98098.03
2022-08-07T09:33:52.639Z,98093.06
2022-08-07T09:37:03.190Z,98086.03
2022-08-07T09:40:25.331Z,98077.84
2022-08-07T09:44:06.446Z,98075.97
2022-08-07T09:47:49.518Z,98079.75
2022-08-07T09:51:14.524Z,98079.19
2022-08-07T09:54:36.888Z,98072.91
2022-08-07T09:58:17.118Z,98074.66
2022-08-07T10:01:54.393Z,98064.13
2022-08-07T10:05:29.684Z,98066.69
2022-08-07T10:09:10.672Z,98061.19
2022-08-07T10:12:40.419Z,98061.38
2022-08-07T10:16:10.788Z,98054.66
2022-08-07T10:19:27.388Z,98062.47
2022-08-07T10:22:50.841Z,98058.81
2022-08-07T10:26:03.476Z,98064.44
2022-08-07T10:29:35.124Z,98060.91
2022-08-07T10:33:01.386Z,98061.38
2022-08-07T10:36:29.900Z,98065.16
2022-08-07T10:40:06.007Z,98049.94
2022-08-07T10:43:21.258Z,98067.34
2022-08-07T10:46:44.386Z,98056.16
2022-08-07T10:49:58.254Z,98057.47
2022-08-07T10:53:11.298Z,98065.88
2022-08-07T10:56:33.218Z,98057.25
2022-08-07T10:59:54.792Z,98054.78
2022-08-07T11:03:10.973Z,98045.56
2022-08-07T11:06:23.515Z,98048.41
2022-08-07T11:10:09.714Z,98043.53
2022-08-07T11:13:42.485Z,98029.06
2022-08-07T11:16:37.884Z,98029.47
2022-08-07T11:19:51.884Z,98024.16
2022-08-07T11:23:04.325Z,98013.56
2022-08-07T11:26:19.295Z,98016.38
2022-08-07T11:30:42.925Z,98013.16
2022-08-07T11:34:00.216Z,98001.69
2022-08-07T11:37:14.717Z,97992.78
2022-08-07T11:40:33.068Z,97998.06
2022-08-07T11:44:10.720Z,97994.53
2022-08-07T11:47:38.685Z,98000.53
2022-08-07T11:51:09.783Z,97994.94
2022-08-07T11:54:35.552Z,97987.31
2022-08-07T11:57:59.790Z,97990.44
2022-08-07T12:01:25.861Z,97979.84
2022-08-07T12:05:28.575Z,97984.22
2022-08-07T12:08:49.830Z,97977.34
2022-08-07T12:12:15.786Z,97968.06
2022-08-07T12:16:30.422Z,97973.13
2022-08-07T12:20:02.581Z,97975.28
2022-08-07T12:23:37.416Z,97971.41
2022-08-07T12:27:05.068Z,97962.56
2022-08-07T12:30:23.470Z,97963.88
2022-08-07T12:34:26.003Z,97963.38
2022-08-07T12:38:10.147Z,97958.34
2022-08-07T12:41:02.551Z,97965.50
2022-08-07T12:44:17.269Z,97960.53
2022-08-07T12:47:37.263Z,97959.53
2022-08-07T12:50:52.975Z,97952.06
2022-08-07T12:54:37.838Z,97944.13
2022-08-07T12:58:07.433Z,97945.81
2022-08-07T13:01:38.027Z,97937.19
2022-08-07T13:06:04.820Z,97940.75
2022-08-07T13:10:17.771Z,97937.38
2022-08-07T13:13:02.572Z,97927.53
2022-08-07T13:16:18.172Z,97932.66
2022-08-07T13:19:51.592Z,97921.00
2022-08-07T13:23:03.936Z,97917.81
2022-08-07T13:26:20.010Z,97912.94
2022-08-07T13:29:42.494Z,97901.81
2022-08-07T13:34:30.353Z,97915.66
2022-08-07T13:41:41.340Z,97896.94
2022-08-07T13:45:40.586Z,97889.00
2022-08-07T13:48:34.532Z,97891.84
2022-08-07T13:52:22.300Z,97901.28
2022-08-07T13:55:38.495Z,97894.22
2022-08-07T13:59:21.549Z,97885.69
2022-08-07T14:02:33.622Z,97898.59
2022-08-07T14:06:08.449Z,97887.50
2022-08-07T14:10:01.992Z,97890.84
2022-08-07T14:13:02.645Z,97886.22
2022-08-07T14:16:32.990Z,97883.75
2022-08-07T14:20:43.530Z,97876.41
2022-08-07T14:23:31.498Z,97872.81
2022-08-07T14:27:02.418Z,97872.78
2022-08-07T14:30:33.579Z,97877.44
2022-08-07T14:33:44.148Z,97858.50
2022-08-07T14:36:55.851Z,97857.25
2022-08-07T14:40:17.750Z,97856.94
2022-08-07T14:43:55.257Z,97854.09
2022-08-07T14:47:14.229Z,97845.41
2022-08-07T14:50:28.333Z,97845.34
2022-08-07T14:54:08.731Z,97845.84
2022-08-07T14:57:04.838Z,97841.91
2022-08-07T15:00:10.062Z,97847.56
2022-08-07T15:03:19.660Z,97841.13
2022-08-07T15:06:27.388Z,97833.66
2022-08-07T15:09:58.818Z,97824.72
2022-08-07T15:13:01.437Z,97823.91
2022-08-07T15:16:18.356Z,97812.78
2022-08-07T15:20:31.324Z,97815.97
2022-08-07T15:26:39.538Z,97812.94
2022-08-07T15:33:19.476Z,97810.56
2022-08-07T15:37:04.045Z,97801.94
2022-08-07T15:39:58.310Z,97804.13
2022-08-07T15:43:53.196Z,97803.59
2022-08-07T15:53:53.090Z,97791.84
2022-08-07T15:57:01.917Z,97791.84
2022-08-07T16:00:07.767Z,97784.75
2022-08-07T16:03:21.653Z,97786.72
2022-08-07T16:06:51.370Z,97796.06
2022-08-07T16:10:14.214Z,97787.47
2022-08-07T16:13:58.805Z,97771.13
2022-08-07T16:18:01.816Z,97785.88
2022-08-07T16:20:55.260Z,97792.06
2022-08-07T16:24:33.648Z,97790.38
2022-08-07T16:27:57.143Z,97794.19
2022-08-07T16:31:11.797Z,97803.19
2022-08-07T16:34:48.144Z,97810.88
2022-08-07T16:38:29.593Z,97821.72
2022-08-07T16:42:12.787Z,97816.16
2022-08-07T16:46:33.543Z,97815.09
2022-08-07T16:50:26.584Z,97810.25
2022-08-07T16:54:01.644Z,97812.03
2022-08-07T16:57:17.177Z,97815.34
2022-08-07T17:00:44.597Z,97821.47
2022-08-07T17:04:00.110Z,97824.69
2022-08-07T17:07:55.636Z,97824.94
2022-08-07T17:11:02.288Z,97830.84
2022-08-07T17:14:22.091Z,97836.81
2022-08-07T17:17:46.019Z,97841.81
2022-08-07T17:21:02.291Z,97855.94
2022-08-07T17:24:47.664Z,97860.44
2022-08-07T17:28:00.524Z,97850.25
2022-08-07T17:31:19.641Z,97852.19
2022-08-07T17:35:30.801Z,97853.69
2022-08-07T17:38:32.117Z,97849.50
2022-08-07T17:42:01.496Z,97856.72
2022-08-07T17:45:28.837Z,97866.44
2022-08-07T17:48:52.092Z,97869.66
2022-08-07T17:52:10.533Z,97871.41
2022-08-07T17:55:55.795Z,97869.00
2022-08-07T17:59:19.883Z,97868.69
2022-08-07T18:02:39.502Z,97877.84
2022-08-07T18:06:16.804Z,97878.44
2022-08-07T18:10:10.769Z,97888.63
2022-08-07T18:13:44.937Z,97893.75
2022-08-07T18:16:58.165Z,97886.69
2022-08-07T18:21:09.847Z,97893.75
2022-08-07T18:24:33.923Z,97891.75
2022-08-07T18:28:00.570Z,97899.63
2022-08-07T18:31:18.558Z,97910.00
2022-08-07T18:34:53.213Z,97902.91
2022-08-07T18:38:55.881Z,97903.19
2022-08-07T18:41:57.872Z,97910.06
2022-08-07T18:45:44.819Z,97907.41
2022-08-07T18:50:31.745Z,97904.03
2022-08-07T18:52:53.847Z,97912.19
2022-08-07T18:56:15.266Z,97913.69
2022-08-07T18:59:47.685Z,97922.47
2022-08-07T19:03:16.086Z,97933.50
2022-08-07T19:06:33.848Z,97932.59
2022-08-07T19:09:56.027Z,97930.88
2022-08-07T19:13:12.109Z,97934.88
2022-08-07T19:17:04.479Z,97931.25
2022-08-07T19:20:28.807Z,97942.09
2022-08-07T19:23:58.961Z,97940.22
2022-08-07T19:28:56.402Z,97940.94
2022-08-07T19:31:05.119Z,97942.63
2022-08-07T19:34:08.771Z,97939.59
2022-08-07T19:37:17.428Z,97944.88
2022-08-07T19:40:30.864Z,97937.19
2022-08-07T19:48:30.835Z,97944.53
2022-08-07T19:51:52.953Z,97950.34
2022-08-07T19:55:05.484Z,97951.91
2022-08-07T19:58:18.540Z,97951.91
2022-08-07T20:01:52.209Z,97952.06
2022-08-07T20:05:00.482Z,97955.59
2022-08-07T20:08:14.386Z,97954.34
2022-08-07T20:11:34.177Z,97956.84
2022-08-07T20:14:54.110Z,97952.78
2022-08-07T20:18:07.023Z,97956.31
2022-08-07T20:21:52.631Z,97957.97
2022-08-07T20:25:06.288Z,97960.81
2022-08-07T20:28:18.354Z,97965.16
2022-08-07T20:31:26.133Z,97968.63
2022-08-07T20:34:50.280Z,97969.63
2022-08-07T20:37:59.001Z,97975.81
2022-08-07T20:41:05.577Z,97979.84
2022-08-07T20:44:13.033Z,97990.44
2022-08-07T20:47:56.364Z,97985.69
2022-08-07T20:50:56.707Z,97981.41
2022-08-07T20:54:08.588Z,97980.22
2022-08-07T20:57:47.512Z,97992.16
2022-08-07T21:01:54.881Z,97975.19
2022-08-07T21:05:10.240Z,97982.06
2022-08-07T21:08:29.359Z,97988.75
2022-08-07T21:11:50.154Z,97994.50
2022-08-07T21:14:58.048Z,97997.63
2022-08-07T21:18:33.633Z,97998.97
2022-08-07T21:21:56.754Z,97987.69
2022-08-07T21:25:13.350Z,98000.06
2022-08-07T21:28:49.299Z,97997.97
2022-08-07T21:32:43.928Z,97997.97
2022-08-07T21:36:03.857Z,97996.28
2022-08-07T21:39:46.853Z,97996.81
2022-08-07T21:42:48.624Z,97994.16
2022-08-07T21:46:05.063Z,97997.00
2022-08-07T21:49:25.694Z,97987.31
2022-08-07T21:52:50.418Z,97991.75
2022-08-07T21:56:16.769Z,97995.03
2022-08-07T22:00:04.266Z,97991.72
2022-08-07T22:03:17.080Z,97989.50
2022-08-07T22:06:31.257Z,97978.00
2022-08-07T22:09:54.379Z,97984.69
2022-08-07T22:13:02.950Z,97990.16
2022-08-07T22:16:43.461Z,97983.47
2022-08-07T22:19:57.247Z,97977.53
2022-08-07T22:23:12.443Z,97980.25
2022-08-07T22:26:23.267Z,97987.69
2022-08-07T22:29:48.533Z,97991.50
2022-08-07T22:33:04.871Z,97983.09
2022-08-07T22:36:19.121Z,97989.44
2022-08-07T22:39:51.943Z,97992.69
2022-08-07T22:43:02.396Z,97986.69
2022-08-07T22:47:02.301Z,97990.19
2022-08-07T22:50:11.191Z,97992.69
2022-08-07T22:54:07.332Z,97997.53
2022-08-07T22:57:25.852Z,97998.28
2022-08-07T23:00:36.088Z,97994.91
2022-08-07T23:04:01.959Z,98000.81
2022-08-07T23:07:40.092Z,98003.38
2022-08-07T23:10:58.093Z,97997.91
2022-08-07T23:14:35.081Z,98001.56
2022-08-07T23:17:54.818Z,97993.38
2022-08-07T23:21:16.476Z,97999.38
2022-08-07T23:24:38.764Z,97991.09
2022-08-07T23:28:28.979Z,97982.25
2022-08-07T23:34:19.413Z,97985.63
2022-08-07T23:35:22.950Z,97987.09
2022-08-07T23:38:43.221Z,97990.78
2022-08-07T23:42:15.535Z,97988.59
2022-08-07T23:46:03.053Z,97989.19
2022-08-07T23:49:26.088Z,97985.56
2022-08-07T23:53:17.462Z,97983.38
2022-08-07T23:56:31.129Z,97981.31
